createdAt,value
2022-09-30T00:01:28.099Z,14.05
2022-09-30T00:04:25.920Z,14.11
2022-09-30T00:07:22.437Z,14.12
2022-09-30T00:10:19.541Z,14.24
2022-09-30T00:13:16.585Z,14.48
2022-09-30T00:16:14.334Z,14.55
2022-09-30T00:19:11.988Z,14.13
2022-09-30T00:22:09.790Z,13.83
2022-09-30T00:25:07.282Z,13.81
2022-09-30T00:28:07.973Z,13.77
2022-09-30T00:31:07.940Z,13.81
2022-09-30T00:34:08.474Z,14.04
2022-09-30T00:37:05.942Z,14.43
2022-09-30T00:40:02.505Z,14.64
2022-09-30T00:43:00.579Z,14.51
2022-09-30T00:45:58.279Z,14.56
2022-09-30T00:48:57.054Z,14.18
2022-09-30T00:51:55.480Z,13.94
2022-09-30T00:54:53.142Z,14.28
2022-09-30T00:57:50.690Z,14.49
2022-09-30T01:00:48.388Z,14.65
2022-09-30T01:03:59.098Z,14.47
2022-09-30T01:07:01.746Z,13.82
2022-09-30T01:09:58.821Z,13.36
2022-09-30T01:12:56.435Z,13.37
2022-09-30T01:15:58.469Z,13.14
2022-09-30T01:19:20.030Z,13.02
2022-09-30T01:22:41.925Z,12.92
2022-09-30T01:26:01.593Z,13.03
2022-09-30T01:29:17.093Z,12.95
2022-09-30T01:32:52.149Z,12.86
2022-09-30T01:36:11.201Z,12.67
2022-09-30T01:39:20.706Z,12.65
2022-09-30T01:42:38.070Z,12.56
2022-09-30T01:45:52.154Z,12.58
2022-09-30T01:48:57.832Z,12.73
2022-09-30T01:52:17.474Z,13.32
2022-09-30T01:55:37.957Z,13.37
2022-09-30T01:58:53.204Z,13.11
2022-09-30T02:01:57.092Z,12.85
2022-09-30T02:05:19.755Z,12.60
2022-09-30T02:08:46.334Z,12.41
2022-09-30T02:11:43.738Z,12.30
2022-09-30T02:14:45.011Z,12.28
2022-09-30T02:18:17.173Z,12.31
2022-09-30T02:21:17.648Z,12.29
2022-09-30T02:24:15.354Z,12.24
2022-09-30T02:27:20.650Z,12.65
2022-09-30T02:30:17.458Z,12.67
2022-09-30T02:33:20.291Z,12.67
2022-09-30T02:36:30.678Z,12.52
2022-09-30T02:39:40.948Z,12.41
2022-09-30T02:42:37.678Z,12.43
2022-09-30T02:45:49.385Z,12.33
2022-09-30T02:48:52.719Z,12.27
2022-09-30T02:51:56.377Z,12.15
2022-09-30T02:55:10.426Z,12.05
2022-09-30T02:58:15.042Z,11.99
2022-09-30T03:01:13.674Z,11.91
2022-09-30T03:04:13.089Z,11.81
2022-09-30T03:07:10.378Z,11.68
2022-09-30T03:10:17.388Z,11.82
2022-09-30T03:13:23.816Z,11.68
2022-09-30T03:16:47.590Z,11.42
2022-09-30T03:20:03.683Z,11.21
2022-09-30T03:23:22.215Z,11.17
2022-09-30T03:26:53.705Z,11.22
2022-09-30T03:30:03.193Z,11.16
2022-09-30T03:33:08.596Z,10.95
2022-09-30T03:36:28.058Z,10.82
2022-09-30T03:39:45.718Z,10.72
2022-09-30T03:42:51.548Z,10.71
2022-09-30T03:45:55.752Z,10.64
2022-09-30T03:48:56.912Z,10.65
2022-09-30T03:51:54.350Z,10.70
2022-09-30T03:54:56.523Z,10.73
2022-09-30T03:57:54.429Z,10.60
2022-09-30T04:00:53.151Z,10.50
2022-09-30T04:03:53.595Z,10.45
2022-09-30T04:06:51.067Z,10.40
2022-09-30T04:09:47.675Z,10.29
2022-09-30T04:12:44.532Z,10.24
2022-09-30T04:15:42.098Z,10.25
2022-09-30T04:18:39.898Z,10.31
2022-09-30T04:21:36.758Z,10.44
2022-09-30T04:24:33.650Z,10.58
2022-09-30T04:27:30.749Z,10.71
2022-09-30T04:30:32.692Z,10.92
2022-09-30T04:33:30.669Z,11.12
2022-09-30T04:36:27.850Z,11.39
2022-09-30T04:39:24.894Z,11.48
2022-09-30T04:42:21.698Z,11.37
2022-09-30T04:45:20.370Z,11.26
2022-09-30T04:48:17.785Z,11.10
2022-09-30T04:51:15.744Z,10.91
2022-09-30T04:54:13.449Z,10.93
2022-09-30T04:57:10.536Z,10.89
2022-09-30T05:00:09.420Z,10.85
2022-09-30T05:03:06.901Z,10.60
2022-09-30T05:06:04.364Z,10.54
2022-09-30T05:09:01.574Z,10.64
2022-09-30T05:11:58.893Z,10.66
2022-09-30T05:14:55.522Z,10.75
2022-09-30T05:17:53.273Z,10.82
2022-09-30T05:20:51.374Z,10.75
2022-09-30T05:23:49.259Z,10.75
2022-09-30T05:26:46.861Z,10.80
2022-09-30T05:29:44.041Z,10.90
2022-09-30T05:32:40.855Z,11.38
2022-09-30T05:35:38.820Z,11.48
2022-09-30T05:38:36.162Z,11.35
2022-09-30T05:41:34.038Z,11.27
2022-09-30T05:44:31.004Z,11.36
2022-09-30T05:47:27.747Z,11.23
2022-09-30T05:50:24.857Z,11.03
2022-09-30T05:53:21.760Z,11.15
2022-09-30T05:56:18.954Z,10.97
2022-09-30T05:59:15.887Z,10.95
2022-09-30T06:02:14.162Z,10.81
2022-09-30T06:05:12.010Z,10.81
2022-09-30T06:08:10.405Z,10.85
2022-09-30T06:11:11.888Z,10.94
2022-09-30T06:14:09.314Z,10.97
2022-09-30T06:17:06.845Z,10.82
2022-09-30T06:20:05.292Z,10.74
2022-09-30T06:23:03.285Z,10.64
2022-09-30T06:26:01.351Z,10.42
2022-09-30T06:28:59.109Z,10.54
2022-09-30T06:31:55.977Z,10.68
2022-09-30T06:34:55.691Z,10.72
2022-09-30T06:37:52.774Z,10.63
2022-09-30T06:40:50.482Z,10.60
2022-09-30T06:43:52.387Z,10.58
2022-09-30T06:46:55.770Z,10.66
2022-09-30T06:49:53.309Z,10.74
2022-09-30T06:52:51.672Z,10.68
2022-09-30T06:55:48.927Z,10.65
2022-09-30T06:58:46.223Z,10.53
2022-09-30T07:01:44.383Z,10.95
2022-09-30T07:04:41.839Z,11.49
2022-09-30T07:07:38.859Z,11.99
2022-09-30T07:10:35.949Z,12.34
2022-09-30T07:13:33.391Z,12.59
2022-09-30T07:16:32.137Z,12.72
2022-09-30T07:19:28.648Z,12.92
2022-09-30T07:22:32.178Z,12.99
2022-09-30T07:25:28.733Z,13.16
2022-09-30T07:28:28.634Z,13.13
2022-09-30T07:31:35.254Z,13.37
2022-09-30T07:34:33.207Z,13.52
2022-09-30T07:37:32.726Z,13.50
2022-09-30T07:40:31.456Z,13.58
2022-09-30T07:43:39.034Z,13.67
2022-09-30T07:46:39.100Z,13.79
2022-09-30T07:49:36.983Z,13.83
2022-09-30T07:52:34.021Z,13.93
2022-09-30T07:55:30.915Z,14.08
2022-09-30T07:58:27.989Z,14.03
2022-09-30T08:01:25.371Z,13.82
2022-09-30T08:04:23.617Z,13.89
2022-09-30T08:07:21.097Z,13.94
2022-09-30T08:13:20.981Z,14.10
2022-09-30T08:16:18.466Z,13.77
2022-09-30T08:19:20.458Z,13.90
2022-09-30T08:22:17.871Z,14.10
2022-09-30T08:25:14.829Z,13.96
2022-09-30T08:28:13.329Z,14.17
2022-09-30T08:31:12.456Z,13.87
2022-09-30T08:34:09.769Z,14.14
2022-09-30T08:37:09.565Z,14.40
2022-09-30T08:40:06.987Z,14.73
2022-09-30T08:43:22.529Z,14.99
2022-09-30T08:46:28.432Z,14.88
2022-09-30T08:50:04.162Z,15.04
2022-09-30T08:53:08.464Z,15.10
2022-09-30T08:56:06.062Z,15.05
2022-09-30T08:59:15.220Z,15.08
2022-09-30T09:02:17.903Z,14.83
2022-09-30T09:05:30.793Z,15.01
2022-09-30T09:08:53.034Z,15.43
2022-09-30T09:12:00.540Z,15.70
2022-09-30T09:15:22.902Z,15.65
2022-09-30T09:18:38.655Z,15.17
2022-09-30T09:21:52.386Z,15.42
2022-09-30T09:24:50.837Z,15.60
2022-09-30T09:27:56.483Z,15.69
2022-09-30T09:30:57.408Z,15.81
2022-09-30T09:33:56.957Z,15.97
2022-09-30T09:37:18.240Z,16.04
2022-09-30T09:40:59.335Z,16.19
2022-09-30T09:44:14.257Z,16.11
2022-09-30T09:47:17.158Z,16.00
2022-09-30T09:50:18.021Z,16.13
2022-09-30T09:53:21.775Z,16.19
2022-09-30T09:56:20.881Z,16.40
2022-09-30T09:59:20.133Z,16.54
2022-09-30T10:02:31.604Z,16.68
2022-09-30T10:05:31.647Z,16.83
2022-09-30T10:08:31.216Z,16.63
2022-09-30T10:11:31.038Z,16.77
2022-09-30T10:14:28.226Z,16.59
2022-09-30T10:17:33.107Z,16.82
2022-09-30T10:20:32.216Z,16.89
2022-09-30T10:23:32.721Z,16.76
2022-09-30T10:26:30.119Z,17.07
2022-09-30T10:29:28.316Z,16.87
2022-09-30T10:32:28.265Z,16.74
2022-09-30T10:35:24.910Z,16.49
2022-09-30T10:38:26.633Z,16.67
2022-09-30T10:41:26.083Z,17.13
2022-09-30T10:44:23.424Z,17.10
2022-09-30T10:47:24.833Z,17.10
2022-09-30T10:50:25.112Z,16.83
2022-09-30T10:53:24.483Z,17.07
2022-09-30T10:56:38.452Z,17.30
2022-09-30T10:59:37.746Z,17.03
2022-09-30T11:02:48.266Z,17.09
2022-09-30T11:05:49.008Z,17.48
2022-09-30T11:09:16.785Z,17.86
2022-09-30T11:12:30.895Z,17.52
2022-09-30T11:15:36.704Z,17.59
2022-09-30T11:18:58.133Z,19.08
2022-09-30T11:22:12.846Z,19.67
2022-09-30T11:25:19.266Z,19.79
2022-09-30T11:28:37.917Z,18.98
2022-09-30T11:31:58.375Z,18.14
2022-09-30T11:35:20.943Z,17.75
2022-09-30T11:38:24.050Z,17.88
2022-09-30T11:41:33.251Z,17.68
2022-09-30T11:44:36.851Z,17.89
2022-09-30T11:48:15.394Z,18.59
2022-09-30T11:51:42.598Z,17.74
2022-09-30T11:54:55.109Z,17.73
2022-09-30T11:58:12.072Z,17.34
2022-09-30T12:01:30.581Z,17.26
2022-09-30T12:04:31.611Z,17.32
2022-09-30T12:07:51.208Z,17.19
2022-09-30T12:11:12.303Z,17.24
2022-09-30T12:14:19.705Z,17.50
2022-09-30T12:17:27.375Z,17.26
2022-09-30T12:20:36.408Z,17.23
2022-09-30T12:23:44.034Z,17.36
2022-09-30T12:26:41.315Z,17.27
2022-09-30T12:29:58.750Z,17.28
2022-09-30T12:33:31.835Z,17.22
2022-09-30T12:36:53.637Z,17.55
2022-09-30T12:40:28.807Z,17.79
2022-09-30T12:43:43.788Z,17.86
2022-09-30T12:46:49.896Z,17.77
2022-09-30T12:49:46.999Z,17.72
2022-09-30T12:52:44.518Z,17.72
2022-09-30T12:55:41.682Z,17.53
2022-09-30T12:58:44.350Z,17.60
2022-09-30T13:01:42.179Z,17.56
2022-09-30T13:04:42.916Z,17.63
2022-09-30T13:07:40.903Z,17.60
2022-09-30T13:10:38.047Z,17.56
2022-09-30T13:14:12.106Z,17.83
2022-09-30T13:17:08.716Z,18.12
2022-09-30T13:20:45.784Z,18.13
2022-09-30T13:23:44.086Z,18.19
2022-09-30T13:26:44.854Z,18.19
2022-09-30T13:29:47.752Z,18.48
2022-09-30T13:33:04.679Z,18.51
2022-09-30T13:36:07.722Z,18.65
2022-09-30T13:39:17.153Z,18.34
2022-09-30T13:42:17.788Z,18.34
2022-09-30T13:45:31.379Z,18.00
2022-09-30T13:48:33.700Z,17.88
2022-09-30T13:51:32.897Z,18.08
2022-09-30T13:54:34.076Z,18.30
2022-09-30T13:57:49.116Z,17.98
2022-09-30T14:00:49.162Z,17.28
2022-09-30T14:04:05.961Z,17.42
2022-09-30T14:07:45.190Z,17.63
2022-09-30T14:11:03.586Z,17.94
2022-09-30T14:14:08.525Z,17.89
2022-09-30T14:17:12.498Z,18.11
2022-09-30T14:20:29.874Z,18.18
2022-09-30T14:23:27.173Z,18.09
2022-09-30T14:26:30.078Z,18.02
2022-09-30T14:29:47.825Z,18.00
2022-09-30T14:33:07.599Z,17.88
2022-09-30T14:36:11.094Z,17.98
2022-09-30T14:39:14.080Z,18.04
2022-09-30T14:42:11.496Z,17.81
2022-09-30T14:45:08.679Z,17.75
2022-09-30T14:48:07.935Z,17.64
2022-09-30T14:51:07.777Z,17.62
2022-09-30T14:54:06.357Z,17.72
2022-09-30T14:57:04.202Z,17.58
2022-09-30T15:00:20.418Z,17.83
2022-09-30T15:03:17.376Z,17.29
2022-09-30T15:06:19.067Z,17.31
2022-09-30T15:09:29.885Z,17.35
2022-09-30T15:12:27.119Z,17.61
2022-09-30T15:15:24.166Z,17.95
2022-09-30T15:18:38.062Z,17.91
2022-09-30T15:21:35.493Z,17.60
2022-09-30T15:24:33.109Z,17.62
2022-09-30T15:27:31.227Z,17.89
2022-09-30T15:30:29.403Z,17.97
2022-09-30T15:33:31.969Z,17.87
2022-09-30T15:36:29.716Z,18.00
2022-09-30T15:39:51.612Z,18.11
2022-09-30T15:43:03.333Z,17.79
2022-09-30T15:46:27.017Z,17.43
2022-09-30T15:49:40.933Z,17.58
2022-09-30T15:52:42.480Z,17.59
2022-09-30T15:55:43.959Z,17.48
2022-09-30T15:58:42.338Z,17.57
2022-09-30T16:01:49.766Z,17.50
2022-09-30T16:04:51.933Z,17.59
2022-09-30T16:07:49.159Z,17.55
2022-09-30T16:10:49.473Z,17.40
2022-09-30T16:13:47.635Z,17.16
2022-09-30T16:16:51.171Z,17.23
2022-09-30T16:20:13.935Z,17.43
2022-09-30T16:23:26.930Z,17.07
2022-09-30T16:26:28.812Z,17.28
2022-09-30T16:29:26.865Z,17.37
2022-09-30T16:32:24.504Z,17.33
2022-09-30T16:35:22.963Z,17.12
2022-09-30T16:38:20.310Z,17.18
2022-09-30T16:41:17.388Z,17.29
2022-09-30T16:44:14.292Z,16.81
2022-09-30T16:47:16.241Z,16.70
2022-09-30T16:50:24.954Z,17.03
2022-09-30T16:53:23.198Z,16.95
2022-09-30T16:56:24.029Z,16.51
2022-09-30T16:59:21.190Z,16.59
2022-09-30T17:02:18.326Z,16.10
2022-09-30T17:05:20.073Z,15.93
2022-09-30T17:08:17.636Z,15.76
2022-09-30T17:11:14.850Z,15.77
2022-09-30T17:14:12.226Z,15.90
2022-09-30T17:17:13.433Z,15.89
2022-09-30T17:20:11.754Z,15.73
2022-09-30T17:23:09.251Z,15.69
2022-09-30T17:26:06.718Z,15.52
2022-09-30T17:29:21.107Z,15.33
2022-09-30T17:32:20.332Z,15.27
2022-09-30T17:35:17.768Z,15.20
2022-09-30T17:38:15.689Z,15.12
2022-09-30T17:41:31.626Z,15.04
2022-09-30T17:44:30.064Z,14.98
2022-09-30T17:47:27.390Z,14.93
2022-09-30T17:50:24.411Z,14.96
2022-09-30T17:53:21.713Z,14.81
2022-09-30T17:56:20.325Z,14.78
2022-09-30T17:59:19.870Z,14.70
2022-09-30T18:02:18.196Z,14.62
2022-09-30T18:05:15.674Z,14.42
2022-09-30T18:08:13.245Z,14.31
2022-09-30T18:11:11.633Z,14.23
2022-09-30T18:14:10.177Z,14.05
2022-09-30T18:17:07.430Z,14.02
2022-09-30T18:20:04.812Z,13.97
2022-09-30T18:23:02.690Z,13.92
2022-09-30T18:26:00.113Z,13.96
2022-09-30T18:28:58.294Z,13.87
2022-09-30T18:31:56.634Z,13.86
2022-09-30T18:34:53.402Z,13.78
2022-09-30T18:37:51.750Z,13.72
2022-09-30T18:40:50.055Z,13.64
2022-09-30T18:43:50.154Z,13.69
2022-09-30T18:46:47.462Z,13.73
2022-09-30T18:49:44.696Z,13.70
2022-09-30T18:52:41.887Z,13.70
2022-09-30T18:55:39.355Z,13.66
2022-09-30T18:58:37.399Z,13.59
2022-09-30T19:01:36.058Z,13.58
2022-09-30T19:04:33.809Z,13.53
2022-09-30T19:07:30.560Z,13.50
2022-09-30T19:10:27.624Z,13.44
2022-09-30T19:13:27.954Z,13.42
2022-09-30T19:16:26.250Z,13.38
2022-09-30T19:19:23.296Z,13.33
2022-09-30T19:22:24.901Z,13.41
2022-09-30T19:25:25.127Z,13.35
2022-09-30T19:28:22.773Z,13.30
2022-09-30T19:31:21.109Z,13.33
2022-09-30T19:34:29.955Z,13.07
2022-09-30T19:37:28.599Z,13.14
2022-09-30T19:40:25.416Z,13.18
2022-09-30T19:43:22.893Z,13.10
2022-09-30T19:46:21.778Z,13.07
2022-09-30T19:49:18.721Z,13.13
2022-09-30T19:52:21.993Z,13.07
2022-09-30T19:55:19.429Z,13.07
2022-09-30T19:58:16.684Z,13.06
2022-09-30T20:01:14.357Z,13.08
2022-09-30T20:04:12.872Z,13.08
2022-09-30T20:07:10.614Z,13.05
2022-09-30T20:10:07.884Z,12.97
2022-09-30T20:13:05.955Z,12.94
2022-09-30T20:16:08.961Z,12.80
2022-09-30T20:19:06.829Z,12.78
2022-09-30T20:22:05.406Z,12.83
2022-09-30T20:25:02.853Z,12.90
2022-09-30T20:27:59.658Z,12.79
2022-09-30T20:30:56.501Z,12.88
2022-09-30T20:33:57.180Z,12.86
2022-09-30T20:36:54.676Z,12.89
2022-09-30T20:39:51.316Z,12.85
2022-09-30T20:42:48.908Z,12.97
2022-09-30T20:45:52.909Z,12.98
2022-09-30T20:48:51.180Z,12.90
2022-09-30T20:51:48.641Z,12.81
2022-09-30T20:54:45.660Z,12.72
2022-09-30T20:57:44.784Z,12.78
2022-09-30T21:00:42.058Z,12.74
2022-09-30T21:03:40.446Z,12.60
2022-09-30T21:06:37.944Z,12.60
2022-09-30T21:09:35.647Z,12.65
2022-09-30T21:12:33.151Z,12.75
2022-09-30T21:15:31.297Z,12.75
2022-09-30T21:18:29.229Z,12.63
2022-09-30T21:21:26.976Z,12.55
2022-09-30T21:24:26.117Z,12.67
2022-09-30T21:27:23.775Z,12.80
2022-09-30T21:30:21.556Z,12.76
2022-09-30T21:33:19.618Z,12.77
2022-09-30T21:36:17.114Z,12.83
2022-09-30T21:39:14.657Z,12.96
2022-09-30T21:42:12.992Z,12.93
2022-09-30T21:45:10.832Z,12.82
2022-09-30T21:48:10.246Z,12.90
2022-09-30T21:51:07.794Z,12.97
2022-09-30T21:54:04.615Z,12.81
2022-09-30T21:57:01.659Z,12.80
2022-09-30T21:59:59.088Z,12.86
2022-09-30T22:02:57.743Z,12.92
2022-09-30T22:05:55.546Z,12.99
2022-09-30T22:08:52.815Z,12.93
2022-09-30T22:11:49.661Z,12.97
2022-09-30T22:14:46.398Z,12.94
2022-09-30T22:17:43.626Z,12.89
2022-09-30T22:20:40.769Z,12.90
2022-09-30T22:23:37.907Z,12.99
2022-09-30T22:26:35.093Z,12.92
2022-09-30T22:29:32.977Z,12.90
2022-09-30T22:32:29.945Z,12.92
2022-09-30T22:35:45.100Z,12.91
2022-09-30T22:38:43.489Z,12.95
2022-09-30T22:41:40.617Z,12.92
2022-09-30T22:44:37.936Z,12.79
2022-09-30T22:47:36.170Z,12.89
2022-09-30T22:50:35.580Z,12.92
2022-09-30T22:53:32.640Z,13.06
2022-09-30T22:56:31.169Z,13.04
2022-09-30T22:59:29.006Z,12.94
2022-09-30T23:02:26.472Z,12.97
2022-09-30T23:05:23.716Z,12.97
2022-09-30T23:08:22.166Z,12.87
2022-09-30T23:11:21.521Z,12.96
2022-09-30T23:14:18.686Z,12.99
2022-09-30T23:17:15.382Z,12.94
2022-09-30T23:20:13.603Z,12.97
2022-09-30T23:23:11.269Z,13.00
2022-09-30T23:26:19.390Z,13.12
2022-09-30T23:29:16.725Z,13.12
2022-09-30T23:32:14.131Z,13.13
2022-09-30T23:35:12.445Z,13.16
2022-09-30T23:38:09.911Z,13.21
2022-09-30T23:41:08.009Z,13.27
2022-09-30T23:44:05.811Z,13.27
2022-09-30T23:47:21.571Z,13.33
2022-09-30T23:50:18.448Z,13.41
2022-09-30T23:53:16.029Z,13.36
2022-09-30T23:56:14.328Z,13.42
2022-09-30T23:59:14.834Z,13.43
